EGSH

Norwich International Airport

Norwich, United Kingdom
METAR EGSH 190320Z AUTO 26010KT 230V290 9999 NCD 02/00 Q1005
Observed Flight Rules
Jan-19 @ 03:20 UTC (23 minutes ago) Visual Flight Rules
Wind Visibility Clouds
260° at 10 knots 10,000+ meters
  • Clear skies
Temperatures Readings
Current 2°C / 36°F
Dewpoint 0°C / 32°F
Humidity 87%
Altimeter 29.68" Hg
Pressure 1005 hPa
Elevation 36
METAR EGSH 190320Z AUTO 26010KT 230V290 9999 NCD 02/00 Q1005
Observed Flight Rules
Jan-19 @ 03:20 UTC
(23 minutes ago)
VFR
Wind Visibility
260° at 10 knots 10,000+ meters
Clouds
  • Clear skies
Temperature Dewpoint
2°C / 36°F 0°C / 32°F
Humidity Altimeter Pressure
87% 29.68" Hg 1005 hPa